createdAt,value
2023-03-12T00:02:18.383Z,0.50
2023-03-12T00:05:05.790Z,0.50
2023-03-12T00:07:52.178Z,0.60
2023-03-12T00:10:40.558Z,0.80
2023-03-12T00:13:26.983Z,0.90
2023-03-12T00:16:15.916Z,0.80
2023-03-12T00:19:03.759Z,0.80
2023-03-12T00:21:50.183Z,0.60
2023-03-12T00:24:36.702Z,0.70
2023-03-12T00:27:23.277Z,0.50
2023-03-12T00:30:11.367Z,0.30
2023-03-12T00:32:58.258Z,0.20
2023-03-12T00:35:46.344Z,0.20
2023-03-12T00:38:32.827Z,0.20
2023-03-12T00:41:19.979Z,0.20
2023-03-12T00:44:07.005Z,0.40
2023-03-12T00:46:53.821Z,0.40
2023-03-12T00:49:41.035Z,0.30
2023-03-12T00:52:29.112Z,0.40
2023-03-12T00:55:15.420Z,0.40
2023-03-12T00:58:01.706Z,0.50
2023-03-12T01:00:49.006Z,0.50
2023-03-12T01:03:35.753Z,0.60
2023-03-12T01:06:22.437Z,0.60
2023-03-12T01:09:11.089Z,0.70
2023-03-12T01:11:57.875Z,0.80
2023-03-12T01:14:44.149Z,0.80
2023-03-12T01:17:30.611Z,0.60
2023-03-12T01:20:17.072Z,0.70
2023-03-12T01:23:04.089Z,0.80
2023-03-12T01:25:55.403Z,0.90
2023-03-12T01:28:42.167Z,0.90
2023-03-12T01:31:29.190Z,0.90
2023-03-12T01:34:16.025Z,0.90
2023-03-12T01:37:03.138Z,1.00
2023-03-12T01:39:50.096Z,0.80
2023-03-12T01:42:38.253Z,0.80
2023-03-12T01:46:02.939Z,0.80
2023-03-12T01:48:54.624Z,0.90
2023-03-12T01:51:46.572Z,0.90
2023-03-12T01:54:36.635Z,0.80
2023-03-12T01:57:27.624Z,0.90
2023-03-12T02:00:19.950Z,1.10
2023-03-12T02:03:09.698Z,1.00
2023-03-12T02:06:03.699Z,0.70
2023-03-12T02:08:51.782Z,0.70
2023-03-12T02:11:38.480Z,0.80
2023-03-12T02:14:25.053Z,0.80
2023-03-12T02:17:13.344Z,0.80
2023-03-12T02:20:07.901Z,0.80
2023-03-12T02:23:04.780Z,0.80
2023-03-12T02:25:55.002Z,0.90
2023-03-12T02:28:44.098Z,0.80
2023-03-12T02:31:36.321Z,0.90
2023-03-12T02:34:23.279Z,0.90
2023-03-12T02:37:09.923Z,0.70
2023-03-12T02:40:03.527Z,0.60
2023-03-12T02:42:51.941Z,0.40
2023-03-12T02:45:40.007Z,0.40
2023-03-12T02:48:27.609Z,0.40
2023-03-12T02:51:14.579Z,0.30
2023-03-12T02:54:01.576Z,0.30
2023-03-12T02:56:48.338Z,0.30
2023-03-12T02:59:36.944Z,0.30
2023-03-12T03:02:25.316Z,0.40
2023-03-12T03:05:13.240Z,0.40
2023-03-12T03:08:00.657Z,0.70
2023-03-12T03:10:47.593Z,0.80
2023-03-12T03:13:35.219Z,1.00
2023-03-12T03:16:24.765Z,1.10
2023-03-12T03:19:11.383Z,1.10
2023-03-12T03:21:58.396Z,1.30
2023-03-12T03:24:45.924Z,1.20
2023-03-12T03:27:32.300Z,1.20
2023-03-12T03:30:21.285Z,1.10
2023-03-12T03:33:11.768Z,1.10
2023-03-12T03:36:00.217Z,0.70
2023-03-12T03:38:50.415Z,0.60
2023-03-12T03:41:37.847Z,0.70
2023-03-12T03:44:24.824Z,0.80
2023-03-12T03:47:12.800Z,0.80
2023-03-12T03:50:01.108Z,0.90
2023-03-12T03:52:47.951Z,1.10
2023-03-12T03:55:37.622Z,1.20
2023-03-12T03:58:24.425Z,1.40
2023-03-12T04:01:11.100Z,1.60
2023-03-12T04:03:57.883Z,1.50
2023-03-12T04:06:46.310Z,1.50
2023-03-12T04:09:34.636Z,1.50
2023-03-12T04:12:23.990Z,1.60
2023-03-12T04:15:11.289Z,1.60
2023-03-12T04:17:58.377Z,1.40
2023-03-12T04:20:46.589Z,1.30
2023-03-12T04:23:34.743Z,1.50
2023-03-12T04:26:21.088Z,1.70
2023-03-12T04:29:08.086Z,1.90
2023-03-12T04:31:54.970Z,2.00
2023-03-12T04:34:41.854Z,1.90
2023-03-12T04:37:28.947Z,1.90
2023-03-12T04:40:19.234Z,1.90
2023-03-12T04:43:05.769Z,1.70
2023-03-12T04:45:52.222Z,1.70
2023-03-12T04:48:38.680Z,1.70
2023-03-12T04:51:25.936Z,1.90
2023-03-12T04:54:12.922Z,2.00
2023-03-12T04:57:02.769Z,2.10
2023-03-12T04:59:50.116Z,2.10
2023-03-12T05:02:38.204Z,2.10
2023-03-12T05:05:25.144Z,2.10
2023-03-12T05:08:11.987Z,2.20
2023-03-12T05:10:58.799Z,2.10
2023-03-12T05:13:48.499Z,2.20
2023-03-12T05:16:35.323Z,2.10
2023-03-12T05:19:22.298Z,2.20
2023-03-12T05:22:09.167Z,2.20
2023-03-12T05:24:57.051Z,2.20
2023-03-12T05:27:43.794Z,2.30
2023-03-12T05:30:33.563Z,2.20
2023-03-12T05:33:20.269Z,2.10
2023-03-12T05:36:08.241Z,2.10
2023-03-12T05:38:55.387Z,2.10
2023-03-12T05:41:44.455Z,2.20
2023-03-12T05:44:35.898Z,2.20
2023-03-12T05:47:24.391Z,2.00
2023-03-12T05:50:12.568Z,2.00
2023-03-12T05:52:59.225Z,2.10
2023-03-12T05:55:46.151Z,2.10
2023-03-12T05:58:33.318Z,2.20
2023-03-12T06:01:23.300Z,2.10
2023-03-12T06:04:12.371Z,2.30
2023-03-12T06:06:58.916Z,2.40
2023-03-12T06:09:46.324Z,2.50
2023-03-12T06:12:34.290Z,2.20
2023-03-12T06:15:21.858Z,2.20
2023-03-12T06:18:08.838Z,2.10
2023-03-12T06:20:57.086Z,2.10
2023-03-12T06:23:44.359Z,2.30
2023-03-12T06:26:34.738Z,2.30
2023-03-12T06:29:21.046Z,2.20
2023-03-12T06:32:08.159Z,2.10
2023-03-12T06:34:54.792Z,2.20
2023-03-12T06:37:42.646Z,2.40
2023-03-12T06:40:29.432Z,2.60
2023-03-12T06:43:15.935Z,2.60
2023-03-12T06:46:03.216Z,2.80
2023-03-12T06:48:49.775Z,2.90
2023-03-12T06:51:36.237Z,3.00
2023-03-12T06:54:24.488Z,3.20
2023-03-12T06:57:11.061Z,3.30
2023-03-12T06:59:57.436Z,3.20
2023-03-12T07:02:44.378Z,3.20
2023-03-12T07:05:30.869Z,3.30
2023-03-12T07:08:18.596Z,3.20
2023-03-12T07:11:06.926Z,3.40
2023-03-12T07:13:53.414Z,3.50
2023-03-12T07:16:39.711Z,3.60
2023-03-12T07:19:26.335Z,3.60
2023-03-12T07:22:12.777Z,3.60
2023-03-12T07:24:59.341Z,3.50
2023-03-12T07:27:47.244Z,3.70
2023-03-12T07:30:33.913Z,3.50
2023-03-12T07:33:22.624Z,3.50
2023-03-12T07:36:10.012Z,3.50
2023-03-12T07:38:56.714Z,3.40
2023-03-12T07:41:43.636Z,3.50
2023-03-12T07:44:32.317Z,3.50
2023-03-12T07:47:24.145Z,3.70
2023-03-12T07:50:12.826Z,3.60
2023-03-12T07:52:59.695Z,3.60
2023-03-12T07:55:48.305Z,3.50
2023-03-12T07:58:36.481Z,3.60
2023-03-12T08:01:25.444Z,3.80
2023-03-12T08:04:12.584Z,3.80
2023-03-12T08:06:59.818Z,3.90
2023-03-12T08:09:49.429Z,3.80
2023-03-12T08:12:37.490Z,3.80
2023-03-12T08:15:23.986Z,3.70
2023-03-12T08:18:11.781Z,3.40
2023-03-12T08:20:58.454Z,3.40
2023-03-12T08:23:44.942Z,3.60
2023-03-12T08:26:31.856Z,3.70
2023-03-12T08:29:18.651Z,3.90
2023-03-12T08:32:05.845Z,4.00
2023-03-12T08:34:53.796Z,4.00
2023-03-12T08:37:41.443Z,4.10
2023-03-12T08:40:28.314Z,4.20
2023-03-12T08:43:15.288Z,4.30
2023-03-12T08:46:03.711Z,4.30
2023-03-12T08:48:50.364Z,4.30
2023-03-12T08:51:38.219Z,4.50
2023-03-12T08:54:25.183Z,4.50
2023-03-12T08:57:12.028Z,4.50
2023-03-12T08:59:59.028Z,4.50
2023-03-12T09:02:47.185Z,4.50
2023-03-12T09:05:34.241Z,4.60
2023-03-12T09:08:22.256Z,4.70
2023-03-12T09:11:10.895Z,4.70
2023-03-12T09:14:31.238Z,4.50
2023-03-12T09:17:04.368Z,4.60
2023-03-12T09:19:50.766Z,4.70
2023-03-12T09:22:37.853Z,4.80
2023-03-12T09:25:25.963Z,5.00
2023-03-12T09:28:13.405Z,5.10
2023-03-12T09:31:02.776Z,5.20
2023-03-12T09:33:49.395Z,5.40
2023-03-12T09:36:36.740Z,5.40
2023-03-12T09:39:23.846Z,5.50
2023-03-12T09:42:22.879Z,5.60
2023-03-12T09:45:16.652Z,5.60
2023-03-12T09:48:03.992Z,5.80
2023-03-12T09:50:52.519Z,5.90
2023-03-12T09:53:42.058Z,5.90
2023-03-12T09:56:29.286Z,6.00
2023-03-12T09:59:17.309Z,6.10
2023-03-12T10:02:07.391Z,6.10
2023-03-12T10:05:00.222Z,6.20
2023-03-12T10:07:53.754Z,6.30
2023-03-12T10:10:54.961Z,6.40
2023-03-12T10:13:54.305Z,6.70
2023-03-12T10:16:53.837Z,6.80
2023-03-12T10:20:07.905Z,7.10
2023-03-12T10:23:01.138Z,7.10
2023-03-12T10:25:53.217Z,6.90
2023-03-12T10:28:44.170Z,6.80
2023-03-12T10:31:35.517Z,6.80
2023-03-12T10:34:30.303Z,6.80
2023-03-12T10:37:21.491Z,7.00
2023-03-12T10:40:13.807Z,7.20
2023-03-12T10:43:00.264Z,7.40
2023-03-12T10:45:57.333Z,7.70
2023-03-12T10:48:44.713Z,8.00
2023-03-12T10:51:33.272Z,8.30
2023-03-12T10:54:23.559Z,8.40
2023-03-12T10:57:10.619Z,8.60
2023-03-12T11:00:08.619Z,8.80
2023-03-12T11:03:00.632Z,8.80
2023-03-12T11:05:49.554Z,8.90
2023-03-12T11:08:38.593Z,9.00
2023-03-12T11:11:33.578Z,9.00
2023-03-12T11:14:22.078Z,8.90
2023-03-12T11:17:22.469Z,8.80
2023-03-12T11:20:25.814Z,8.80
2023-03-12T11:23:15.926Z,9.00
2023-03-12T11:26:05.982Z,9.10
2023-03-12T11:28:55.763Z,9.20
2023-03-12T11:31:47.317Z,9.30
2023-03-12T11:34:37.193Z,9.40
2023-03-12T11:37:32.617Z,9.70
2023-03-12T11:40:29.964Z,10.00
2023-03-12T11:43:43.543Z,10.10
2023-03-12T11:46:43.620Z,10.10
2023-03-12T11:49:45.858Z,10.00
2023-03-12T11:52:48.979Z,10.10
2023-03-12T11:55:48.232Z,10.20
2023-03-12T11:58:50.270Z,10.20
2023-03-12T12:01:48.026Z,10.40
2023-03-12T12:05:08.749Z,10.50
2023-03-12T12:08:06.651Z,10.50
2023-03-12T12:11:04.384Z,10.50
2023-03-12T12:14:06.606Z,10.40
2023-03-12T12:17:04.346Z,10.30
2023-03-12T12:20:09.021Z,10.10
2023-03-12T12:23:04.812Z,10.20
2023-03-12T12:26:05.650Z,10.20
2023-03-12T12:29:22.124Z,10.20
2023-03-12T12:32:14.651Z,10.20
2023-03-12T12:35:10.592Z,10.20
2023-03-12T12:38:03.495Z,10.30
2023-03-12T12:40:54.426Z,10.50
2023-03-12T12:43:42.977Z,10.60
2023-03-12T12:46:35.947Z,10.60
2023-03-12T12:49:27.110Z,10.60
2023-03-12T12:52:18.079Z,10.50
2023-03-12T12:55:12.530Z,10.60
2023-03-12T12:58:01.519Z,10.70
2023-03-12T13:00:50.752Z,10.80
2023-03-12T13:03:39.517Z,10.90
2023-03-12T13:06:30.341Z,11.10
2023-03-12T13:09:17.689Z,11.30
2023-03-12T13:12:16.878Z,11.30
2023-03-12T13:15:32.828Z,11.30
2023-03-12T13:18:26.155Z,11.20
2023-03-12T13:21:23.343Z,11.20
2023-03-12T13:24:23.176Z,11.20
2023-03-12T13:27:18.563Z,11.20
2023-03-12T13:30:38.867Z,11.20
2023-03-12T13:33:42.229Z,11.00
2023-03-12T13:36:30.681Z,11.00
2023-03-12T13:39:31.839Z,11.00
2023-03-12T13:42:39.935Z,11.10
2023-03-12T13:45:30.460Z,11.30
2023-03-12T13:48:19.117Z,11.50
2023-03-12T13:51:16.929Z,11.70
2023-03-12T13:54:04.777Z,11.80
2023-03-12T13:57:01.315Z,11.80
2023-03-12T13:59:51.747Z,11.70
2023-03-12T14:02:43.496Z,11.60
2023-03-12T14:05:44.862Z,11.60
2023-03-12T14:08:57.948Z,11.60
2023-03-12T14:11:54.819Z,11.60
2023-03-12T14:15:01.150Z,11.60
2023-03-12T14:17:53.770Z,11.70
2023-03-12T14:20:41.812Z,11.80
2023-03-12T14:23:33.534Z,11.90
2023-03-12T14:26:25.444Z,12.00
2023-03-12T14:29:20.734Z,12.10
2023-03-12T14:32:14.955Z,12.20
2023-03-12T14:35:15.563Z,12.20
2023-03-12T14:38:06.358Z,12.20
2023-03-12T14:40:57.057Z,12.40
2023-03-12T14:43:46.276Z,12.50
2023-03-12T14:46:32.968Z,12.50
2023-03-12T14:49:21.757Z,12.40
2023-03-12T14:52:11.956Z,12.30
2023-03-12T14:55:00.501Z,12.20
2023-03-12T14:57:47.528Z,12.10
2023-03-12T15:00:35.351Z,12.10
2023-03-12T15:03:22.098Z,12.10
2023-03-12T15:06:15.481Z,12.00
2023-03-12T15:09:04.883Z,11.90
2023-03-12T15:11:54.789Z,11.90
2023-03-12T15:14:43.628Z,11.90
2023-03-12T15:17:32.583Z,11.80
2023-03-12T15:20:21.050Z,11.80
2023-03-12T15:23:10.038Z,11.90
2023-03-12T15:26:14.336Z,11.80
2023-03-12T15:29:04.155Z,11.80
2023-03-12T15:31:51.562Z,11.90
2023-03-12T15:34:40.725Z,11.90
2023-03-12T15:37:32.756Z,12.00
2023-03-12T15:40:23.171Z,12.00
2023-03-12T15:43:18.614Z,12.00
2023-03-12T15:46:07.378Z,12.00
2023-03-12T15:48:55.987Z,12.00
2023-03-12T15:51:43.976Z,11.90
2023-03-12T15:54:30.960Z,11.90
2023-03-12T15:57:22.456Z,11.90
2023-03-12T16:00:26.945Z,11.90
2023-03-12T16:03:18.277Z,11.90
2023-03-12T16:06:05.591Z,11.80
2023-03-12T16:08:56.834Z,11.80
2023-03-12T16:11:44.167Z,11.80
2023-03-12T16:14:32.898Z,11.80
2023-03-12T16:17:20.601Z,11.80
2023-03-12T16:20:11.105Z,11.80
2023-03-12T16:22:58.023Z,11.80
2023-03-12T16:25:48.167Z,11.80
2023-03-12T16:28:36.027Z,11.80
2023-03-12T16:31:22.616Z,11.70
2023-03-12T16:34:11.120Z,11.70
2023-03-12T16:36:57.998Z,11.70
2023-03-12T16:39:46.390Z,11.70
2023-03-12T16:42:35.022Z,11.60
2023-03-12T16:45:23.413Z,11.60
2023-03-12T16:48:15.031Z,11.60
2023-03-12T16:51:01.466Z,11.60
2023-03-12T16:53:58.440Z,11.50
2023-03-12T16:56:51.782Z,11.60
2023-03-12T16:59:39.651Z,11.50
2023-03-12T17:02:28.368Z,11.50
2023-03-12T17:05:15.145Z,11.50
2023-03-12T17:08:02.334Z,11.50
2023-03-12T17:10:48.893Z,11.40
2023-03-12T17:13:37.643Z,11.50
2023-03-12T17:16:25.934Z,11.40
2023-03-12T17:19:12.453Z,11.40
2023-03-12T17:21:59.538Z,11.40
2023-03-12T17:24:47.260Z,11.40
2023-03-12T17:27:33.900Z,11.20
2023-03-12T17:30:21.908Z,11.30
2023-03-12T17:33:11.544Z,11.30
2023-03-12T17:35:59.945Z,11.30
2023-03-12T17:38:48.512Z,11.30
2023-03-12T17:41:36.420Z,11.30
2023-03-12T17:44:22.739Z,11.30
2023-03-12T17:47:09.210Z,11.30
2023-03-12T17:49:57.141Z,11.30
2023-03-12T17:52:43.886Z,11.30
2023-03-12T17:55:30.346Z,11.30
2023-03-12T17:58:17.026Z,11.30
2023-03-12T18:01:03.542Z,11.30
2023-03-12T18:03:51.205Z,11.30
2023-03-12T18:06:39.411Z,11.20
2023-03-12T18:09:26.576Z,11.20
2023-03-12T18:12:13.280Z,11.20
2023-03-12T18:15:00.170Z,11.20
2023-03-12T18:17:49.909Z,11.20
2023-03-12T18:20:39.639Z,11.20
2023-03-12T18:23:28.205Z,11.10
2023-03-12T18:26:15.076Z,11.00
2023-03-12T18:29:02.218Z,10.90
2023-03-12T18:31:49.022Z,10.90
2023-03-12T18:34:36.020Z,10.90
2023-03-12T18:37:23.137Z,10.90
2023-03-12T18:40:12.957Z,10.90
2023-03-12T18:42:59.421Z,10.80
2023-03-12T18:45:45.809Z,10.80
2023-03-12T18:48:33.072Z,10.80
2023-03-12T18:51:19.627Z,10.80
2023-03-12T18:54:06.143Z,10.80
2023-03-12T18:56:54.505Z,10.70
2023-03-12T18:59:45.199Z,10.70
2023-03-12T19:02:32.203Z,10.60
2023-03-12T19:05:19.186Z,10.50
2023-03-12T19:08:06.838Z,10.60
2023-03-12T19:10:53.611Z,10.60
2023-03-12T19:13:41.353Z,10.60
2023-03-12T19:16:28.017Z,10.60
2023-03-12T19:19:15.191Z,10.50
2023-03-12T19:22:01.931Z,10.60
2023-03-12T19:24:48.270Z,10.50
2023-03-12T19:27:34.958Z,10.50
2023-03-12T19:30:23.029Z,10.60
2023-03-12T19:33:09.940Z,10.60
2023-03-12T19:35:56.775Z,10.60
2023-03-12T19:38:43.705Z,10.60
2023-03-12T19:41:30.290Z,10.70
2023-03-12T19:44:17.083Z,10.70
2023-03-12T19:47:05.795Z,10.70
2023-03-12T19:49:52.696Z,10.70
2023-03-12T19:52:39.526Z,10.80
2023-03-12T19:55:26.503Z,10.80
2023-03-12T19:58:13.387Z,10.80
2023-03-12T20:01:00.601Z,10.70
2023-03-12T20:03:48.956Z,10.80
2023-03-12T20:06:35.585Z,10.80
2023-03-12T20:09:21.907Z,10.90
2023-03-12T20:12:08.893Z,10.90
2023-03-12T20:14:55.468Z,10.90
2023-03-12T20:17:41.980Z,10.90
2023-03-12T20:20:29.703Z,10.90
2023-03-12T20:23:16.152Z,10.90
2023-03-12T20:26:03.326Z,10.90
2023-03-12T20:28:49.945Z,10.90
2023-03-12T20:31:36.497Z,10.80
2023-03-12T20:34:23.529Z,10.90
2023-03-12T20:37:11.619Z,10.90
2023-03-12T20:39:58.292Z,11.00
2023-03-12T20:42:44.778Z,11.00
2023-03-12T20:45:31.437Z,11.00
2023-03-12T20:48:18.631Z,11.00
2023-03-12T20:51:06.341Z,11.10
2023-03-12T20:53:54.442Z,11.10
2023-03-12T20:56:43.585Z,11.20
2023-03-12T20:59:30.670Z,11.20
2023-03-12T21:02:17.573Z,11.20
2023-03-12T21:05:04.653Z,11.20
2023-03-12T21:07:51.186Z,11.30
2023-03-12T21:10:39.604Z,11.30
2023-03-12T21:13:26.843Z,11.30
2023-03-12T21:16:13.846Z,11.30
2023-03-12T21:19:01.029Z,11.30
2023-03-12T21:21:47.696Z,11.30
2023-03-12T21:24:34.410Z,11.30
2023-03-12T21:27:22.429Z,11.30
2023-03-12T21:30:10.384Z,11.30
2023-03-12T21:32:56.987Z,11.40
2023-03-12T21:35:44.861Z,11.40
2023-03-12T21:38:31.987Z,11.40
2023-03-12T21:41:19.067Z,11.40
2023-03-12T21:44:07.150Z,11.40
2023-03-12T21:46:53.952Z,11.50
2023-03-12T21:49:41.021Z,11.50
2023-03-12T21:52:27.988Z,11.50
2023-03-12T21:55:14.652Z,11.50
2023-03-12T21:58:01.439Z,11.50
2023-03-12T22:00:49.163Z,11.50
2023-03-12T22:03:36.022Z,11.50
2023-03-12T22:06:22.722Z,11.60
2023-03-12T22:09:09.506Z,11.50
2023-03-12T22:11:56.033Z,11.50
2023-03-12T22:14:42.463Z,11.50
2023-03-12T22:17:30.178Z,11.50
2023-03-12T22:20:16.841Z,11.50
2023-03-12T22:23:03.699Z,11.40
2023-03-12T22:25:50.223Z,11.40
2023-03-12T22:28:37.072Z,11.40
2023-03-12T22:31:25.897Z,11.40
2023-03-12T22:34:14.061Z,11.40
2023-03-12T22:37:00.339Z,11.40
2023-03-12T22:39:46.575Z,11.40
2023-03-12T22:42:33.091Z,11.40
2023-03-12T22:45:19.833Z,11.40
2023-03-12T22:48:06.953Z,11.40
2023-03-12T22:50:58.298Z,11.30
2023-03-12T22:53:45.120Z,11.30
2023-03-12T22:56:31.457Z,11.30
2023-03-12T22:59:17.979Z,11.20
2023-03-12T23:02:04.601Z,11.20
2023-03-12T23:04:51.230Z,11.30
2023-03-12T23:07:39.331Z,11.30
2023-03-12T23:10:26.448Z,11.30
2023-03-12T23:13:13.173Z,11.30
2023-03-12T23:16:02.762Z,11.30
2023-03-12T23:18:50.002Z,11.30
2023-03-12T23:21:36.464Z,11.30
2023-03-12T23:24:24.207Z,11.30
2023-03-12T23:27:10.580Z,11.30
2023-03-12T23:29:56.945Z,11.30
2023-03-12T23:32:43.459Z,11.40
2023-03-12T23:35:31.003Z,11.40
2023-03-12T23:38:17.742Z,11.40
2023-03-12T23:41:06.680Z,11.50
2023-03-12T23:43:53.969Z,11.50
2023-03-12T23:46:40.639Z,11.50
2023-03-12T23:49:27.788Z,11.40
2023-03-12T23:52:14.402Z,11.40
2023-03-12T23:55:00.782Z,11.40
2023-03-12T23:57:48.945Z,11.50
